Time;durP1;ratioP1;P1;durP2;ratioP2;P2;SDS_P1;SDS_P2;PMS_P1;PMS_P2;Temp;Humidity;BMP_temperature;BMP_pressure;BME280_temperature;BME280_humidity;BME280_pressure;Samples;Min_cycle;Max_cycle;Signal;HPM_P1;HPM_P2
2021/12/28 00:01:00;;;;;;;5.60;1.90;;;7.50;99.90;;;;;;5028208;28;20705;-78
2021/12/28 00:03:26;;;;;;;8.10;2.65;;;7.50;99.90;;;;;;5036719;28;20181;-78
2021/12/28 00:05:51;;;;;;;4.03;2.03;;;7.50;99.90;;;;;;5034881;28;20204;-80
2021/12/28 00:08:19;;;;;;;3.23;1.93;;;7.50;99.90;;;;;;5034658;28;20181;-78
2021/12/28 00:10:45;;;;;;;3.15;1.95;;;7.50;99.90;;;;;;5020969;28;20208;-79
2021/12/28 00:13:11;;;;;;;2.28;1.75;;;7.40;99.90;;;;;;5037714;28;20185;-79
2021/12/28 00:15:49;;;;;;;3.90;1.70;;;7.40;99.90;;;;;;5037760;28;20854;-79
2021/12/28 00:18:15;;;;;;;2.55;1.80;;;7.40;99.90;;;;;;5035586;28;20231;-78
2021/12/28 00:20:47;;;;;;;6.13;2.10;;;7.40;99.90;;;;;;5036623;28;20182;-79
2021/12/28 00:23:17;;;;;;;3.22;1.85;;;7.30;99.90;;;;;;5034094;28;20220;-78
2021/12/28 00:25:43;;;;;;;2.40;1.73;;;7.20;99.90;;;;;;5036725;28;20288;-79
2021/12/28 00:28:09;;;;;;;2.88;1.92;;;7.20;99.90;;;;;;5038085;28;20563;-80
2021/12/28 00:30:35;;;;;;;8.40;2.40;;;7.20;99.90;;;;;;5039979;28;20200;-80
2021/12/28 00:33:01;;;;;;;7.00;2.47;;;7.20;99.90;;;;;;5038110;28;20228;-81
2021/12/28 00:35:31;;;;;;;3.47;1.58;;;7.10;99.90;;;;;;5036230;28;20619;-83
2021/12/28 00:37:57;;;;;;;5.90;1.20;;;7.10;99.90;;;;;;5042828;28;20165;-80
2021/12/28 00:40:23;;;;;;;5.00;2.17;;;7.10;99.90;;;;;;5042672;28;20235;-82
2021/12/28 00:42:49;;;;;;;7.60;1.52;;;7.10;99.90;;;;;;5041069;28;20563;-82
2021/12/28 00:45:14;;;;;;;1.80;1.13;;;7.10;99.90;;;;;;5021894;28;20216;-80
2021/12/28 00:47:40;;;;;;;4.43;1.70;;;7.10;99.90;;;;;;5045971;28;20462;-79
2021/12/28 00:50:08;;;;;;;6.80;1.67;;;7.00;99.90;;;;;;5043415;28;20189;-79
2021/12/28 00:52:34;;;;;;;3.55;1.90;;;7.10;99.90;;;;;;5045031;28;20193;-80
2021/12/28 00:55:01;;;;;;;5.07;1.67;;;7.00;99.90;;;;;;5047564;28;20219;-79
2021/12/28 00:57:26;;;;;;;6.10;1.77;;;7.00;99.90;;;;;;5043762;28;20181;-81
2021/12/28 00:59:52;;;;;;;5.13;1.40;;;6.90;99.90;;;;;;5044489;28;20256;-80
2021/12/28 01:02:17;;;;;;;7.53;1.47;;;7.00;99.90;;;;;;5045809;28;20252;-80
2021/12/28 01:04:43;;;;;;;4.77;1.57;;;7.00;99.90;;;;;;5041436;28;20217;-79
2021/12/28 01:07:08;;;;;;;7.93;1.50;;;6.90;99.90;;;;;;5043343;28;20188;-80
2021/12/28 01:09:34;;;;;;;3.77;1.60;;;6.90;99.90;;;;;;5043512;28;20193;-80
2021/12/28 01:12:04;;;;;;;2.53;1.33;;;6.80;99.90;;;;;;5042687;28;20182;-80
2021/12/28 01:14:29;;;;;;;6.82;1.40;;;6.80;99.90;;;;;;5041909;28;20238;-79
2021/12/28 01:16:55;;;;;;;7.13;1.97;;;6.80;99.90;;;;;;5045389;28;20216;-79
2021/12/28 01:19:21;;;;;;;3.83;1.75;;;6.90;99.90;;;;;;5042281;28;20600;-80
2021/12/28 01:21:46;;;;;;;2.43;1.33;;;6.80;99.90;;;;;;5043984;28;20182;-77
2021/12/28 01:24:12;;;;;;;7.50;1.67;;;7.00;99.90;;;;;;5044514;28;20201;-79
2021/12/28 01:26:38;;;;;;;12.03;1.80;;;7.00;99.90;;;;;;5044128;28;20640;-79
2021/12/28 01:29:04;;;;;;;3.03;1.33;;;7.00;99.90;;;;;;5040903;28;20204;-81
2021/12/28 01:31:29;;;;;;;4.57;1.05;;;6.90;99.90;;;;;;5043974;28;20200;-79
2021/12/28 01:33:56;;;;;;;5.70;1.43;;;7.00;99.90;;;;;;5043267;28;20681;-80
2021/12/28 01:36:22;;;;;;;7.47;2.10;;;;;;;;;;5042389;28;21174;-79
2021/12/28 01:38:47;;;;;;;5.55;2.20;;;7.00;99.90;;;;;;5041227;28;20271;-81
2021/12/28 01:41:13;;;;;;;3.20;1.33;;;7.20;99.90;;;;;;5029166;28;21842;-82
2021/12/28 01:43:40;;;;;;;13.07;2.20;;;7.20;99.90;;;;;;5047483;28;20689;-79
2021/12/28 01:46:07;;;;;;;10.32;1.80;;;7.20;99.90;;;;;;5046269;28;20197;-81
2021/12/28 01:48:36;;;;;;;6.90;1.55;;;7.20;99.90;;;;;;5045309;28;20189;-80
2021/12/28 01:51:05;;;;;;;5.57;2.30;;;7.30;99.90;;;;;;5045108;28;20189;-79
2021/12/28 01:53:32;;;;;;;7.45;1.02;;;7.20;99.90;;;;;;5035426;28;20669;-79
2021/12/28 01:56:00;;;;;;;5.50;1.60;;;7.30;99.90;;;;;;5044832;28;20193;-78
2021/12/28 01:58:26;;;;;;;14.45;3.00;;;7.30;99.90;;;;;;5046234;28;20177;-81
2021/12/28 02:00:54;;;;;;;10.47;1.57;;;7.30;99.90;;;;;;5043892;28;20178;-79
2021/12/28 02:03:22;;;;;;;15.32;2.13;;;7.20;99.90;;;;;;5045006;28;20268;-79
2021/12/28 02:05:49;;;;;;;5.80;2.28;;;7.30;99.90;;;;;;5034775;28;21666;-79
2021/12/28 02:08:16;;;;;;;6.00;2.20;;;7.20;99.90;;;;;;5046754;28;20239;-81
2021/12/28 02:10:45;;;;;;;3.92;1.65;;;7.40;99.90;;;;;;5047357;28;20203;-79
2021/12/28 02:13:10;;;;;;;8.27;1.50;;;7.40;99.90;;;;;;5042755;28;20178;-80
2021/12/28 02:15:37;;;;;;;6.17;1.50;;;7.20;99.90;;;;;;5046673;28;20224;-81
2021/12/28 02:18:05;;;;;;;12.73;2.97;;;7.10;99.90;;;;;;5045857;28;20174;-81
2021/12/28 02:20:30;;;;;;;2.92;0.95;;;7.10;99.90;;;;;;5045494;28;20218;-80
2021/12/28 02:22:56;;;;;;;2.90;1.60;;;7.20;99.90;;;;;;5045991;28;20271;-81
2021/12/28 02:25:22;;;;;;;6.97;1.80;;;7.20;99.90;;;;;;5044335;28;20682;-80
2021/12/28 02:27:47;;;;;;;8.77;2.30;;;7.30;99.90;;;;;;5041884;28;20172;-78
2021/12/28 02:30:16;;;;;;;13.53;1.70;;;7.30;99.90;;;;;;5045373;28;20181;-79
2021/12/28 02:32:44;;;;;;;4.60;1.55;;;7.40;99.90;;;;;;5043357;28;20212;-79
2021/12/28 02:35:23;;;;;;;2.90;1.73;;;7.50;99.90;;;;;;5044434;28;20305;-78
2021/12/28 02:37:49;;;;;;;9.95;1.63;;;7.50;99.90;;;;;;5046072;28;20241;-79
2021/12/28 02:40:18;;;;;;;5.20;1.55;;;7.60;99.90;;;;;;5044901;28;20186;-78
2021/12/28 02:42:44;;;;;;;11.20;2.50;;;7.60;99.90;;;;;;5043976;28;20173;-82
2021/12/28 02:45:14;;;;;;;10.75;2.83;;;7.70;99.90;;;;;;5043466;28;20288;-80
2021/12/28 02:47:42;;;;;;;14.32;1.58;;;7.70;99.90;;;;;;5044655;28;20197;-81
2021/12/28 02:50:17;;;;;;;13.52;2.63;;;7.70;99.90;;;;;;5026673;28;20189;-80
2021/12/28 02:52:42;;;;;;;5.68;1.98;;;7.80;99.90;;;;;;5045291;28;20197;-80
2021/12/28 02:55:11;;;;;;;10.07;2.37;;;7.80;99.90;;;;;;5046089;28;20324;-81
2021/12/28 02:57:37;;;;;;;10.27;1.30;;;7.80;99.90;;;;;;5046004;28;20673;-81
2021/12/28 03:00:06;;;;;;;5.82;1.15;;;9.40;99.90;;;;;;5046790;28;20177;-81
2021/12/28 03:02:32;;;;;;;6.60;2.17;;;;;;;;;;5046272;28;20231;-82
2021/12/28 03:04:58;;;;;;;3.35;1.20;;;7.80;99.90;;;;;;5044675;28;20221;-81
2021/12/28 03:07:24;;;;;;;4.90;1.73;;;7.80;99.90;;;;;;5034186;28;20705;-80
2021/12/28 03:09:50;;;;;;;8.38;1.60;;;7.80;99.90;;;;;;5045172;28;20200;-80
2021/12/28 03:12:15;;;;;;;10.20;1.60;;;7.80;99.90;;;;;;5046182;28;20227;-81
2021/12/28 03:14:41;;;;;;;13.23;2.10;;;7.70;99.90;;;;;;5042454;28;20215;-79
2021/12/28 03:17:06;;;;;;;8.27;1.50;;;7.70;99.90;;;;;;5043883;28;20197;-80
2021/12/28 03:19:33;;;;;;;6.20;2.23;;;7.80;99.90;;;;;;5041867;28;20181;-80
2021/12/28 03:21:59;;;;;;;7.47;2.00;;;7.80;99.90;;;;;;5043964;28;20261;-79
2021/12/28 03:24:26;;;;;;;11.20;2.27;;;7.80;99.90;;;;;;5043868;28;20202;-81
2021/12/28 03:26:52;;;;;;;7.63;2.33;;;7.80;99.90;;;;;;5044580;28;20649;-79
2021/12/28 03:29:21;;;;;;;12.45;1.92;;;7.70;99.90;;;;;;5044964;28;20645;-80
2021/12/28 03:31:47;;;;;;;13.57;3.10;;;7.70;99.90;;;;;;5031197;28;20185;-80
2021/12/28 03:34:13;;;;;;;2.78;0.73;;;7.60;99.90;;;;;;5044524;28;20231;-79
2021/12/28 03:36:38;;;;;;;6.60;1.95;;;7.70;99.90;;;;;;5043525;28;20509;-80
2021/12/28 03:39:04;;;;;;;4.50;1.50;;;7.60;99.90;;;;;;5042901;28;20264;-80
2021/12/28 03:41:31;;;;;;;10.30;2.00;;;7.70;99.90;;;;;;5045600;28;20518;-80
2021/12/28 03:43:57;;;;;;;13.30;1.90;;;7.80;99.90;;;;;;5045804;28;20185;-80
2021/12/28 03:46:24;;;;;;;7.40;2.03;;;7.70;99.90;;;;;;5024888;28;20279;-80
2021/12/28 03:48:50;;;;;;;7.78;3.28;;;7.80;99.90;;;;;;5044491;28;20512;-81
2021/12/28 03:51:16;;;;;;;18.70;2.80;;;7.80;99.90;;;;;;5044039;28;20208;-80
2021/12/28 03:53:42;;;;;;;8.77;1.83;;;7.80;99.90;;;;;;5045663;28;20241;-81
2021/12/28 03:56:09;;;;;;;5.25;1.90;;;7.80;99.90;;;;;;5044164;28;20189;-81
2021/12/28 03:58:37;;;;;;;5.28;1.20;;;7.90;99.90;;;;;;5035067;28;20170;-80
2021/12/28 04:01:04;;;;;;;6.85;1.80;;;7.90;99.90;;;;;;5044726;28;20207;-80
2021/12/28 04:03:30;;;;;;;9.00;1.73;;;7.70;99.90;;;;;;5043147;28;20276;-81
2021/12/28 04:05:55;;;;;;;6.03;2.00;;;7.70;99.90;;;;;;5043165;28;20297;-77
2021/12/28 04:08:23;;;;;;;10.13;1.77;;;7.80;99.90;;;;;;5044037;28;20203;-82
2021/12/28 04:10:53;;;;;;;17.23;2.35;;;7.80;99.90;;;;;;5046053;28;20181;-80
2021/12/28 04:13:21;;;;;;;16.23;1.90;;;7.70;99.90;;;;;;5047574;28;20176;-79
2021/12/28 04:15:47;;;;;;;10.63;1.75;;;7.60;99.90;;;;;;5042512;28;20216;-82
2021/12/28 04:18:14;;;;;;;4.68;1.25;;;7.60;99.90;;;;;;5044370;28;20188;-80
2021/12/28 04:20:39;;;;;;;15.48;2.65;;;7.50;99.90;;;;;;5044095;28;20185;-79
2021/12/28 04:23:05;;;;;;;5.97;1.87;;;7.60;99.90;;;;;;5045646;28;20261;-81
2021/12/28 04:25:31;;;;;;;2.30;1.03;;;7.70;99.90;;;;;;5028343;28;20240;-80
2021/12/28 04:27:57;;;;;;;11.23;2.47;;;7.70;99.90;;;;;;5045205;28;20213;-80
2021/12/28 04:30:23;;;;;;;12.30;2.20;;;7.70;99.90;;;;;;5043375;28;20205;-78
2021/12/28 04:32:48;;;;;;;4.57;1.37;;;7.80;99.90;;;;;;5043833;28;20825;-78
2021/12/28 04:35:16;;;;;;;4.97;2.00;;;7.70;99.90;;;;;;5042027;28;20674;-77
2021/12/28 04:37:42;;;;;;;7.45;2.17;;;7.60;99.90;;;;;;5043695;28;20180;-78
2021/12/28 04:40:10;;;;;;;11.70;1.93;;;7.70;99.90;;;;;;5028223;28;20181;-79
2021/12/28 04:42:36;;;;;;;9.52;1.70;;;7.60;99.90;;;;;;5044923;28;20181;-80
2021/12/28 04:45:03;;;;;;;12.18;1.45;;;7.60;99.90;;;;;;5029438;28;20201;-76
2021/12/28 04:47:28;;;;;;;10.15;1.80;;;7.50;99.90;;;;;;5043310;28;20194;-80
2021/12/28 04:49:54;;;;;;;13.30;2.83;;;;;;;;;;5042463;28;20202;-79
2021/12/28 04:52:20;;;;;;;11.15;1.95;;;7.50;99.90;;;;;;5031568;28;20204;-78
2021/12/28 04:54:46;;;;;;;8.90;2.07;;;7.40;99.90;;;;;;5043838;28;20585;-79
2021/12/28 04:57:12;;;;;;;9.40;1.37;;;7.40;99.90;;;;;;5043025;28;20428;-79
2021/12/28 04:59:37;;;;;;;7.63;1.63;;;7.40;99.90;;;;;;5043101;28;20178;-78
2021/12/28 05:02:03;;;;;;;7.77;1.47;;;7.40;99.90;;;;;;5045185;28;20180;-79
2021/12/28 05:04:29;;;;;;;32.07;4.27;;;7.30;99.90;;;;;;5044480;28;20239;-78
2021/12/28 05:06:55;;;;;;;5.30;1.77;;;7.30;99.90;;;;;;5025634;28;20427;-78
2021/12/28 05:09:21;;;;;;;15.03;1.90;;;7.30;99.90;;;;;;5027284;28;20264;-78
2021/12/28 05:11:48;;;;;;;12.57;2.28;;;7.20;99.90;;;;;;5025157;28;20849;-80
2021/12/28 05:14:16;;;;;;;5.07;1.90;;;7.30;99.90;;;;;;5040432;28;20292;-77
2021/12/28 05:16:42;;;;;;;15.25;1.58;;;7.20;99.90;;;;;;5043926;28;20193;-80
2021/12/28 05:19:07;;;;;;;4.43;1.17;;;7.20;99.90;;;;;;5041006;28;20176;-81
2021/12/28 05:21:34;;;;;;;12.33;2.00;;;7.10;99.90;;;;;;5044222;28;20260;-78
2021/12/28 05:24:00;;;;;;;5.10;1.17;;;7.10;99.90;;;;;;5042990;28;20216;-77
2021/12/28 05:26:26;;;;;;;5.60;1.50;;;7.10;99.90;;;;;;5042885;28;20225;-80
2021/12/28 05:28:51;;;;;;;6.43;2.27;;;7.20;99.90;;;;;;5038765;28;20243;-79
2021/12/28 05:31:17;;;;;;;3.77;1.80;;;7.10;99.90;;;;;;5031394;28;20538;-82
2021/12/28 05:33:43;;;;;;;5.57;2.10;;;7.10;99.90;;;;;;5043605;28;20272;-81
2021/12/28 05:36:09;;;;;;;11.03;2.33;;;7.10;99.90;;;;;;5040979;28;20209;-81
2021/12/28 05:38:35;;;;;;;4.90;1.63;;;7.10;99.90;;;;;;5026715;28;21185;-82
2021/12/28 05:41:01;;;;;;;1.93;1.37;;;7.20;99.90;;;;;;5026916;28;20201;-80
2021/12/28 05:43:27;;;;;;;6.90;1.53;;;7.10;99.90;;;;;;5041310;28;20424;-80
2021/12/28 05:45:52;;;;;;;8.17;2.23;;;7.10;99.90;;;;;;5043852;28;20819;-80
2021/12/28 05:48:18;;;;;;;3.17;1.53;;;7.10;99.90;;;;;;5041647;28;20177;-78
2021/12/28 05:50:43;;;;;;;8.63;1.60;;;7.10;99.90;;;;;;5042017;28;20215;-79
2021/12/28 05:53:09;;;;;;;8.70;1.40;;;7.20;99.90;;;;;;5042026;28;20189;-80
2021/12/28 05:55:35;;;;;;;3.33;1.40;;;7.20;99.90;;;;;;5039401;28;20310;-80
2021/12/28 05:58:00;;;;;;;5.67;1.33;;;7.20;99.90;;;;;;5041309;28;21244;-80
2021/12/28 06:00:28;;;;;;;7.40;2.17;;;7.10;99.90;;;;;;5043539;28;20766;-80
2021/12/28 06:02:55;;;;;;;5.82;1.70;;;7.10;99.90;;;;;;5037953;28;20257;-81
2021/12/28 06:05:20;;;;;;;7.25;2.00;;;7.00;99.90;;;;;;5040098;28;20205;-80
2021/12/28 06:07:46;;;;;;;8.50;2.10;;;7.00;99.90;;;;;;5041718;28;20232;-79
2021/12/28 06:10:11;;;;;;;14.70;2.20;;;7.10;99.90;;;;;;5040405;28;20208;-80
2021/12/28 06:12:37;;;;;;;5.37;2.30;;;7.00;99.90;;;;;;5041757;28;20180;-80
2021/12/28 06:15:03;;;;;;;11.32;2.03;;;7.00;99.90;;;;;;5022708;28;20690;-80
2021/12/28 06:17:29;;;;;;;4.40;2.27;;;7.10;99.90;;;;;;5043311;28;20238;-79
2021/12/28 06:19:54;;;;;;;5.73;1.73;;;7.10;99.90;;;;;;5041358;28;20916;-80
2021/12/28 06:22:20;;;;;;;2.93;1.33;;;7.10;99.90;;;;;;5040718;28;20178;-80
2021/12/28 06:24:45;;;;;;;8.03;2.40;;;7.00;99.90;;;;;;5023807;28;20578;-80
2021/12/28 06:27:11;;;;;;;5.77;1.43;;;7.00;99.90;;;;;;5045309;28;20277;-80
2021/12/28 06:29:37;;;;;;;3.90;1.37;;;7.00;99.90;;;;;;5042115;28;20276;-78
2021/12/28 06:32:03;;;;;;;10.03;3.10;;;7.00;99.90;;;;;;5029970;28;20647;-80
2021/12/28 06:34:28;;;;;;;6.57;2.00;;;7.00;99.90;;;;;;5038278;28;20225;-83
2021/12/28 06:36:54;;;;;;;4.57;2.03;;;7.00;99.90;;;;;;5041392;28;20169;-80
2021/12/28 06:39:19;;;;;;;7.90;1.30;;;7.00;99.90;;;;;;5032154;28;20186;-79
2021/12/28 06:41:45;;;;;;;9.73;1.70;;;7.00;99.90;;;;;;5039653;28;20196;-82
2021/12/28 06:44:11;;;;;;;7.43;2.53;;;7.00;99.90;;;;;;5023562;28;20239;-82
2021/12/28 06:46:38;;;;;;;12.40;3.40;;;6.90;99.90;;;;;;5044483;28;20189;-82
2021/12/28 06:49:05;;;;;;;14.20;6.25;;;7.00;99.90;;;;;;5041349;28;20181;-80
2021/12/28 06:51:31;;;;;;;4.32;1.35;;;;;;;;;;5043052;28;20189;-80
2021/12/28 06:53:57;;;;;;;11.52;2.75;;;7.00;99.90;;;;;;5037978;28;20255;-78
2021/12/28 06:56:23;;;;;;;4.53;1.85;;;7.00;99.90;;;;;;5040054;28;20173;-81
2021/12/28 06:58:49;;;;;;;9.00;1.43;;;7.10;99.90;;;;;;5043076;28;20192;-81
2021/12/28 07:01:14;;;;;;;5.10;1.57;;;7.10;99.90;;;;;;5042662;28;20434;-79
2021/12/28 07:03:40;;;;;;;4.63;1.83;;;7.10;99.90;;;;;;5041518;28;20197;-79
2021/12/28 07:06:07;;;;;;;7.00;2.83;;;7.10;99.90;;;;;;5039668;28;20212;-80
2021/12/28 07:08:36;;;;;;;4.82;1.80;;;7.10;99.90;;;;;;5041112;28;20181;-81
2021/12/28 07:11:02;;;;;;;15.27;2.10;;;7.10;99.90;;;;;;5041478;28;20204;-80
2021/12/28 07:13:28;;;;;;;2.67;1.30;;;7.10;99.90;;;;;;5041510;28;20188;-79
2021/12/28 07:15:54;;;;;;;3.23;1.67;;;7.10;99.90;;;;;;5041967;28;20217;-80
2021/12/28 07:18:19;;;;;;;6.07;1.47;;;7.10;99.90;;;;;;5040854;28;20280;-80
2021/12/28 07:20:45;;;;;;;1.63;1.20;;;7.00;99.90;;;;;;5040106;28;20193;-80
2021/12/28 07:23:10;;;;;;;4.77;3.90;;;7.10;99.90;;;;;;5045153;28;20177;-80
2021/12/28 07:25:36;;;;;;;6.83;2.00;;;7.20;99.90;;;;;;5026380;28;20211;-81
2021/12/28 07:28:02;;;;;;;1.73;1.63;;;7.20;99.90;;;;;;5028120;28;20223;-79
2021/12/28 07:30:28;;;;;;;7.05;2.72;;;7.20;99.90;;;;;;5026070;28;20658;-80
2021/12/28 07:32:53;;;;;;;3.20;1.80;;;7.30;99.90;;;;;;5043146;28;20216;-79
2021/12/28 07:35:19;;;;;;;6.37;1.93;;;7.40;99.90;;;;;;5042570;28;20206;-81
2021/12/28 07:37:45;;;;;;;2.60;1.23;;;;;;;;;;5059545;23;20221;-83
2021/12/28 07:40:11;;;;;;;4.50;1.83;;;;;;;;;;5047387;28;20263;-82
2021/12/28 07:42:39;;;;;;;2.63;1.88;;;;;;;;;;5030792;28;20185;-82
2021/12/28 07:45:09;;;;;;;1.98;1.25;;;7.30;99.90;;;;;;5046302;28;20185;-81
2021/12/28 07:47:35;;;;;;;2.42;1.60;;;7.30;99.90;;;;;;5009740;28;20208;-81
2021/12/28 07:50:01;;;;;;;3.58;1.73;;;;;;;;;;5026561;28;20221;-82
2021/12/28 07:52:27;;;;;;;2.60;1.90;;;;;;;;;;5010349;28;20217;-84
2021/12/28 07:54:52;;;;;;;2.07;1.60;;;7.70;99.90;;;;;;5013239;28;20560;-82
2021/12/28 07:57:18;;;;;;;3.20;1.23;;;;;;;;;;5020839;28;20506;-80
2021/12/28 07:59:44;;;;;;;1.87;1.63;;;;;;;;;;5025591;28;20186;-81
2021/12/28 08:02:10;;;;;;;4.60;3.10;;;;;;;;;;5024596;28;20428;-79
2021/12/28 08:04:36;;;;;;;1.50;1.30;;;;;;;;;;5020053;28;20441;-81
2021/12/28 08:07:02;;;;;;;5.63;1.40;;;;;;;;;;5020469;28;20460;-83
2021/12/28 08:09:28;;;;;;;3.65;1.70;;;7.90;99.90;;;;;;5020929;28;20440;-82
2021/12/28 08:11:53;;;;;;;3.63;0.80;;;7.80;99.90;;;;;;5022895;28;20183;-84
2021/12/28 08:14:19;;;;;;;4.63;2.47;;;8.00;99.90;;;;;;5026021;28;20209;-82
2021/12/28 08:16:45;;;;;;;2.73;1.80;;;;;;;;;;5021170;28;20279;-81
2021/12/28 08:19:11;;;;;;;2.05;1.30;;;;;;;;;;5021671;28;20217;-80
2021/12/28 08:21:37;;;;;;;5.13;2.13;;;;;;;;;;5023623;28;20217;-83
2021/12/28 08:24:05;;;;;;;1.92;1.63;;;7.90;99.90;;;;;;5021889;28;20448;-80
2021/12/28 08:26:30;;;;;;;1.00;0.90;;;8.00;99.90;;;;;;5023737;28;20202;-84
2021/12/28 08:28:56;;;;;;;2.20;1.40;;;;;;;;;;5004037;28;20216;-82
2021/12/28 08:31:22;;;;;;;1.58;1.20;;;7.90;99.90;;;;;;5022916;28;20256;-83
2021/12/28 08:33:48;;;;;;;2.37;1.30;;;7.90;99.90;;;;;;5010054;28;20185;-80
2021/12/28 08:36:14;;;;;;;3.60;1.60;;;;;;;;;;5019275;28;20228;-80
2021/12/28 08:38:41;;;;;;;4.57;2.53;;;;;;;;;;5024319;28;20182;-80
2021/12/28 08:41:07;;;;;;;2.85;1.77;;;7.80;99.90;;;;;;5008793;28;20425;-81
2021/12/28 08:43:33;;;;;;;0.70;0.70;;;;;;;;;;5013059;28;20189;-81
2021/12/28 08:45:58;;;;;;;2.20;1.13;;;7.90;99.90;;;;;;5027406;28;20178;-82
2021/12/28 08:48:24;;;;;;;2.27;1.40;;;;;;;;;;5006642;28;20421;-82
2021/12/28 08:50:50;;;;;;;4.80;0.95;;;7.90;99.90;;;;;;5020812;28;20181;-83
2021/12/28 08:53:16;;;;;;;3.73;2.50;;;;;;;;;;5005241;28;20192;-82
2021/12/28 08:55:42;;;;;;;2.88;2.00;;;8.10;99.90;;;;;;5024659;28;20206;-82
2021/12/28 08:58:08;;;;;;;4.57;1.88;;;;;;;;;;5003106;28;20244;-82
2021/12/28 09:00:36;;;;;;;8.05;4.43;;;8.40;99.90;;;;;;5022362;28;20178;-79
2021/12/28 09:03:03;;;;;;;4.35;2.78;;;8.60;99.90;;;;;;5026121;28;20185;-84
2021/12/28 09:05:29;;;;;;;0.73;0.70;;;8.60;99.90;;;;;;5019600;28;20206;-83
2021/12/28 09:07:55;;;;;;;1.37;0.80;;;8.60;99.90;;;;;;5019127;28;20260;-83
2021/12/28 09:10:21;;;;;;;0.70;0.70;;;8.60;99.90;;;;;;5026007;28;20497;-81
2021/12/28 09:12:47;;;;;;;3.58;2.17;;;8.90;99.90;;;;;;5023874;28;20358;-81
2021/12/28 09:15:13;;;;;;;1.37;0.60;;;8.80;99.90;;;;;;5000491;28;20724;-82
2021/12/28 09:17:40;;;;;;;2.88;1.27;;;8.80;99.90;;;;;;5015519;28;20466;-79
2021/12/28 09:20:10;;;;;;;1.50;0.60;;;8.90;99.90;;;;;;5012855;28;20185;-83
2021/12/28 09:22:36;;;;;;;0.50;0.40;;;8.80;99.90;;;;;;5017956;28;20177;-81
2021/12/28 09:25:03;;;;;;;2.10;0.90;;;8.70;99.90;;;;;;5018331;28;20186;-80
2021/12/28 09:27:29;;;;;;;1.60;1.00;;;;;;;;;;5006926;28;20995;-82
2021/12/28 09:29:55;;;;;;;6.57;1.20;;;;;;;;;;5020585;28;20187;-83
2021/12/28 09:32:21;;;;;;;1.23;0.30;;;;;;;;;;5023143;28;20595;-82
2021/12/28 09:34:50;;;;;;;2.13;0.90;;;8.80;99.90;;;;;;5006981;28;21516;-80
2021/12/28 09:37:17;;;;;;;1.60;1.15;;;8.80;99.90;;;;;;5023978;28;20459;-81
2021/12/28 09:39:42;;;;;;;1.05;0.80;;;8.80;99.90;;;;;;5024623;28;20209;-84
2021/12/28 09:42:09;;;;;;;1.33;0.97;;;;;;;;;;5011872;28;20255;-82
2021/12/28 09:44:35;;;;;;;1.67;1.20;;;8.80;99.90;;;;;;5020626;28;20265;-82
2021/12/28 09:47:03;;;;;;;1.60;1.30;;;9.00;99.90;;;;;;5014347;28;20209;-82
2021/12/28 09:49:30;;;;;;;3.38;1.08;;;;;;;;;;5026761;28;20201;-82
2021/12/28 09:51:57;;;;;;;0.88;0.88;;;9.10;99.90;;;;;;5011482;28;20205;-83
2021/12/28 09:54:24;;;;;;;11.88;1.02;;;9.10;99.90;;;;;;5011996;28;20695;-83
2021/12/28 09:56:51;;;;;;;1.17;0.95;;;9.10;99.90;;;;;;5014008;28;20201;-82
2021/12/28 09:59:17;;;;;;;2.78;0.57;;;;;;;;;;5021227;28;20186;-82
2021/12/28 10:01:43;;;;;;;0.88;0.40;;;;;;;;;;5021161;28;20277;-83
2021/12/28 10:04:09;;;;;;;2.40;0.60;;;;;;;;;;5035418;28;20629;-82
2021/12/28 10:06:34;;;;;;;2.53;0.83;;;9.20;99.90;;;;;;5030791;28;20466;-82
2021/12/28 10:09:09;;;;;;;0.63;0.60;;;9.10;99.90;;;;;;5030619;28;20925;-81
2021/12/28 10:11:44;;;;;;;1.27;1.17;;;9.20;99.90;;;;;;5031304;28;20191;-83
2021/12/28 10:14:28;;;;;;;0.82;0.70;;;9.30;99.90;;;;;;5028634;28;20223;-83
2021/12/28 10:17:00;;;;;;;0.68;0.50;;;9.60;99.90;;;;;;5010333;28;20208;-84
2021/12/28 10:19:44;;;;;;;1.83;1.13;;;9.40;99.90;;;;;;5028733;28;20185;-83
2021/12/28 10:22:37;;;;;;;1.77;0.60;;;9.60;99.90;;;;;;5030598;28;21167;-82
2021/12/28 10:25:11;;;;;;;1.70;1.05;;;9.80;99.90;;;;;;5023557;28;20196;-82
2021/12/28 10:27:40;;;;;;;4.63;0.93;;;10.00;99.90;;;;;;5028018;28;20828;-82
2021/12/28 10:30:08;;;;;;;1.05;0.68;;;10.50;99.90;;;;;;5030494;28;20383;-83
2021/12/28 10:32:35;;;;;;;0.82;0.70;;;;;;;;;;5022918;28;20181;-80
2021/12/28 10:35:10;;;;;;;0.70;0.65;;;11.20;99.90;;;;;;5025130;28;20194;-82
2021/12/28 10:37:39;;;;;;;3.90;0.60;;;11.50;99.90;;;;;;5027855;28;20217;-79
2021/12/28 10:40:10;;;;;;;0.60;0.40;;;11.00;99.90;;;;;;5027581;28;20997;-79
2021/12/28 10:42:54;;;;;;;0.63;0.55;;;11.00;99.90;;;;;;5022452;28;20204;-82
2021/12/28 10:45:27;;;;;;;0.57;0.50;;;11.10;99.90;;;;;;5030715;28;20793;-83
2021/12/28 10:47:54;;;;;;;0.70;0.57;;;11.10;99.90;;;;;;5023273;28;20205;-80
2021/12/28 10:50:23;;;;;;;0.70;0.50;;;11.20;99.90;;;;;;5026175;28;20350;-83
2021/12/28 10:53:00;;;;;;;1.77;0.75;;;;;;;;;;5024086;28;20269;-85
2021/12/28 10:55:27;;;;;;;4.80;1.50;;;11.20;99.90;;;;;;5027530;28;20201;-79
2021/12/28 10:57:53;;;;;;;1.40;0.52;;;;;;;;;;5032370;28;20602;-82
2021/12/28 11:00:31;;;;;;;1.57;0.77;;;11.00;99.90;;;;;;5031900;28;20189;-81
2021/12/28 11:03:18;;;;;;;3.88;2.63;;;11.20;99.90;;;;;;5030185;28;20427;-81
2021/12/28 11:05:47;;;;;;;2.33;1.33;;;11.10;99.90;;;;;;5031786;28;20178;-80
2021/12/28 11:08:13;;;;;;;1.02;0.88;;;;;;;;;;5016351;28;20625;-80
2021/12/28 11:10:52;;;;;;;0.90;0.90;;;11.00;99.90;;;;;;5035386;28;20631;-81
2021/12/28 11:13:29;;;;;;;2.90;2.40;;;11.10;99.90;;;;;;5033177;28;20677;-80
2021/12/28 11:15:56;;;;;;;1.13;0.68;;;11.00;99.90;;;;;;5030893;28;20771;-83
2021/12/28 11:18:22;;;;;;;0.52;0.45;;;;;;;;;;5016893;28;20175;-83
2021/12/28 11:20:50;;;;;;;1.20;1.10;;;11.10;99.90;;;;;;5032610;28;20217;-82
2021/12/28 11:23:19;;;;;;;1.50;1.30;;;11.20;99.90;;;;;;5035193;28;20483;-80
2021/12/28 11:25:45;;;;;;;4.22;1.80;;;;;;;;;;5037345;28;20193;-80
2021/12/28 11:28:16;;;;;;;1.27;0.90;;;10.80;99.90;;;;;;5035809;28;20528;-82
2021/12/28 11:31:04;;;;;;;0.70;0.40;;;10.90;99.90;;;;;;5041180;28;20189;-84
2021/12/28 11:33:48;;;;;;;1.13;0.80;;;11.00;99.90;;;;;;5040983;28;20185;-84
2021/12/28 11:36:16;;;;;;;0.60;0.60;;;11.20;99.90;;;;;;5039800;28;20206;-80
2021/12/28 11:38:43;;;;;;;1.30;1.20;;;11.30;99.90;;;;;;5023480;28;20206;-84
2021/12/28 11:41:09;;;;;;;2.05;0.80;;;;;;;;;;5023893;28;20247;-80
2021/12/28 11:43:36;;;;;;;0.43;0.43;;;11.10;99.90;;;;;;5020156;28;20200;-82
2021/12/28 11:46:03;;;;;;;1.67;0.93;;;11.10;99.90;;;;;;5038026;28;20692;-82
2021/12/28 11:48:31;;;;;;;1.20;0.60;;;11.10;99.90;;;;;;5022911;28;20185;-84
2021/12/28 11:50:58;;;;;;;1.48;1.38;;;11.20;99.90;;;;;;5019919;28;20185;-80
2021/12/28 11:53:24;;;;;;;2.00;1.20;;;;;;;;;;5036278;28;20512;-83
2021/12/28 11:55:52;;;;;;;1.48;0.60;;;11.30;99.90;;;;;;5033704;28;20278;-80
2021/12/28 11:58:17;;;;;;;1.17;0.70;;;11.20;99.90;;;;;;5035669;28;20202;-82
2021/12/28 12:00:44;;;;;;;1.33;1.23;;;11.30;99.90;;;;;;5030939;28;20249;-81
2021/12/28 12:03:39;;;;;;;0.95;0.80;;;11.30;99.90;;;;;;5037319;28;20184;-82
2021/12/28 12:06:05;;;;;;;3.13;2.15;;;;;;;;;;5033422;28;20213;-83
2021/12/28 12:08:34;;;;;;;3.13;1.10;;;;;;;;;;5038989;28;20457;-82
2021/12/28 12:11:03;;;;;;;1.52;0.93;;;11.20;99.90;;;;;;5035790;28;20220;-81
2021/12/28 12:13:30;;;;;;;0.75;0.60;;;11.30;99.90;;;;;;5034161;28;20181;-82
2021/12/28 12:16:02;;;;;;;0.35;0.30;;;11.20;99.90;;;;;;5032693;28;20205;-82
2021/12/28 12:18:31;;;;;;;1.30;0.80;;;11.40;99.90;;;;;;5018993;28;20177;-84
2021/12/28 12:21:00;;;;;;;1.33;0.60;;;11.30;99.90;;;;;;5036758;28;20181;-79
2021/12/28 12:23:27;;;;;;;1.65;1.17;;;11.60;99.90;;;;;;5033622;28;20182;-83
2021/12/28 12:26:02;;;;;;;1.20;0.90;;;11.40;99.90;;;;;;5034366;28;20170;-83
2021/12/28 12:28:31;;;;;;;4.03;3.25;;;11.40;99.90;;;;;;5016356;28;20241;-85
2021/12/28 12:30:57;;;;;;;4.88;2.55;;;;;;;;;;5020139;28;20216;-81
2021/12/28 12:33:23;;;;;;;5.90;2.72;;;;;;;;;;5032891;28;20181;-81
2021/12/28 12:35:53;;;;;;;2.15;1.60;;;11.10;99.90;;;;;;5034186;28;20232;-80
2021/12/28 12:38:24;;;;;;;2.58;1.73;;;11.20;99.90;;;;;;5031649;28;20174;-83
2021/12/28 12:41:09;;;;;;;2.40;1.83;;;11.00;99.90;;;;;;5037005;28;20173;-82
2021/12/28 12:43:38;;;;;;;1.35;1.27;;;;;;;;;;5018121;28;20181;-80
2021/12/28 12:46:21;;;;;;;1.70;0.85;;;10.60;99.90;;;;;;5019207;28;20205;-81
2021/12/28 12:48:47;;;;;;;4.25;1.45;;;11.10;99.90;;;;;;5014639;28;20193;-81
2021/12/28 12:51:18;;;;;;;2.33;1.60;;;11.20;99.90;;;;;;5026893;28;20186;-81
2021/12/28 12:53:46;;;;;;;0.70;0.70;;;11.10;99.90;;;;;;5020495;28;20717;-81
2021/12/28 12:56:18;;;;;;;0.75;0.70;;;11.10;99.90;;;;;;5018728;28;20201;-78
2021/12/28 12:58:46;;;;;;;1.00;0.52;;;11.10;99.90;;;;;;5020012;28;20193;-82
2021/12/28 13:01:40;;;;;;;1.63;1.02;;;11.00;99.90;;;;;;5024599;28;20713;-81
2021/12/28 13:04:24;;;;;;;2.72;1.15;;;11.10;99.90;;;;;;4984741;28;20224;-83
2021/12/28 13:07:19;;;;;;;2.30;1.33;;;11.00;99.90;;;;;;5027548;28;20259;-81
2021/12/28 13:09:48;;;;;;;1.50;1.10;;;11.10;99.90;;;;;;5032489;28;20178;-83